sensor_id;sensor_type;location;lat;lon;timestamp;P1;durP1;ratioP1;P2;durP2;ratioP2
34982;SDS011;21187;50.976;13.720;2023-12-20T00:00:56;3.10;;;2.03;;
34982;SDS011;21187;50.976;13.720;2023-12-20T00:05:58;3.88;;;2.35;;
34982;SDS011;21187;50.976;13.720;2023-12-20T00:10:59;3.97;;;2.40;;
34982;SDS011;21187;50.976;13.720;2023-12-20T00:16:01;5.68;;;2.75;;
34982;SDS011;21187;50.976;13.720;2023-12-20T00:21:03;4.72;;;2.42;;
34982;SDS011;21187;50.976;13.720;2023-12-20T00:26:05;2.92;;;2.13;;
34982;SDS011;21187;50.976;13.720;2023-12-20T00:31:07;2.85;;;2.00;;
34982;SDS011;21187;50.976;13.720;2023-12-20T00:36:09;5.57;;;2.25;;
34982;SDS011;21187;50.976;13.720;2023-12-20T00:41:11;3.05;;;2.28;;
34982;SDS011;21187;50.976;13.720;2023-12-20T00:46:13;3.67;;;2.13;;
34982;SDS011;21187;50.976;13.720;2023-12-20T00:51:15;3.75;;;2.15;;
34982;SDS011;21187;50.976;13.720;2023-12-20T00:56:16;2.92;;;2.10;;
34982;SDS011;21187;50.976;13.720;2023-12-20T01:01:18;3.05;;;1.90;;
34982;SDS011;21187;50.976;13.720;2023-12-20T01:06:20;2.65;;;2.03;;
34982;SDS011;21187;50.976;13.720;2023-12-20T01:11:22;2.50;;;1.27;;
34982;SDS011;21187;50.976;13.720;2023-12-20T01:16:24;2.58;;;1.45;;
34982;SDS011;21187;50.976;13.720;2023-12-20T01:21:26;1.83;;;1.20;;
34982;SDS011;21187;50.976;13.720;2023-12-20T01:26:28;2.22;;;1.77;;
34982;SDS011;21187;50.976;13.720;2023-12-20T01:31:29;1.65;;;1.25;;
34982;SDS011;21187;50.976;13.720;2023-12-20T01:36:31;1.45;;;1.23;;
34982;SDS011;21187;50.976;13.720;2023-12-20T01:41:33;2.58;;;1.42;;
34982;SDS011;21187;50.976;13.720;2023-12-20T01:46:35;1.83;;;1.17;;
34982;SDS011;21187;50.976;13.720;2023-12-20T01:51:37;2.50;;;1.23;;
34982;SDS011;21187;50.976;13.720;2023-12-20T01:56:39;8.52;;;1.30;;
34982;SDS011;21187;50.976;13.720;2023-12-20T02:01:42;1.30;;;0.93;;
34982;SDS011;21187;50.976;13.720;2023-12-20T02:06:44;0.90;;;0.90;;
34982;SDS011;21187;50.976;13.720;2023-12-20T02:11:48;1.80;;;1.02;;
34982;SDS011;21187;50.976;13.720;2023-12-20T02:16:50;1.00;;;0.90;;
34982;SDS011;21187;50.976;13.720;2023-12-20T02:22:04;1.05;;;0.90;;
34982;SDS011;21187;50.976;13.720;2023-12-20T02:27:10;3.40;;;0.82;;
34982;SDS011;21187;50.976;13.720;2023-12-20T02:32:12;0.77;;;0.68;;
34982;SDS011;21187;50.976;13.720;2023-12-20T02:37:14;0.82;;;0.68;;
34982;SDS011;21187;50.976;13.720;2023-12-20T02:42:16;1.75;;;0.90;;
34982;SDS011;21187;50.976;13.720;2023-12-20T02:47:18;0.70;;;0.55;;
34982;SDS011;21187;50.976;13.720;2023-12-20T02:52:20;0.93;;;0.80;;
34982;SDS011;21187;50.976;13.720;2023-12-20T02:57:22;0.43;;;0.40;;
34982;SDS011;21187;50.976;13.720;2023-12-20T03:02:24;0.60;;;0.55;;
34982;SDS011;21187;50.976;13.720;2023-12-20T03:07:26;0.60;;;0.60;;
34982;SDS011;21187;50.976;13.720;2023-12-20T03:12:28;0.88;;;0.88;;
34982;SDS011;21187;50.976;13.720;2023-12-20T03:17:30;0.43;;;0.43;;
34982;SDS011;21187;50.976;13.720;2023-12-20T03:22:32;0.38;;;0.38;;
34982;SDS011;21187;50.976;13.720;2023-12-20T03:27:34;0.40;;;0.40;;
34982;SDS011;21187;50.976;13.720;2023-12-20T03:32:39;0.50;;;0.50;;
34982;SDS011;21187;50.976;13.720;2023-12-20T03:37:41;0.47;;;0.47;;
34982;SDS011;21187;50.976;13.720;2023-12-20T03:42:43;0.50;;;0.50;;
34982;SDS011;21187;50.976;13.720;2023-12-20T03:47:45;0.52;;;0.52;;
34982;SDS011;21187;50.976;13.720;2023-12-20T03:52:47;0.40;;;0.40;;
34982;SDS011;21187;50.976;13.720;2023-12-20T03:57:49;0.65;;;0.52;;
34982;SDS011;21187;50.976;13.720;2023-12-20T04:02:51;0.40;;;0.40;;
34982;SDS011;21187;50.976;13.720;2023-12-20T04:07:53;0.60;;;0.60;;
34982;SDS011;21187;50.976;13.720;2023-12-20T04:12:55;0.52;;;0.47;;
34982;SDS011;21187;50.976;13.720;2023-12-20T04:17:57;1.20;;;0.50;;
34982;SDS011;21187;50.976;13.720;2023-12-20T04:22:58;0.50;;;0.40;;
34982;SDS011;21187;50.976;13.720;2023-12-20T04:28:00;0.40;;;0.40;;
34982;SDS011;21187;50.976;13.720;2023-12-20T04:33:02;0.63;;;0.50;;
34982;SDS011;21187;50.976;13.720;2023-12-20T04:38:04;0.85;;;0.70;;
34982;SDS011;21187;50.976;13.720;2023-12-20T04:43:07;0.63;;;0.63;;
34982;SDS011;21187;50.976;13.720;2023-12-20T04:48:11;0.60;;;0.60;;
34982;SDS011;21187;50.976;13.720;2023-12-20T04:53:14;0.60;;;0.57;;
34982;SDS011;21187;50.976;13.720;2023-12-20T04:58:16;0.60;;;0.60;;
34982;SDS011;21187;50.976;13.720;2023-12-20T05:03:18;1.30;;;0.40;;
34982;SDS011;21187;50.976;13.720;2023-12-20T05:08:20;1.80;;;0.80;;
34982;SDS011;21187;50.976;13.720;2023-12-20T05:13:22;0.50;;;0.50;;
34982;SDS011;21187;50.976;13.720;2023-12-20T05:18:26;0.50;;;0.50;;
34982;SDS011;21187;50.976;13.720;2023-12-20T05:23:28;0.98;;;0.50;;
34982;SDS011;21187;50.976;13.720;2023-12-20T05:28:30;0.90;;;0.57;;
34982;SDS011;21187;50.976;13.720;2023-12-20T05:33:32;2.05;;;0.40;;
34982;SDS011;21187;50.976;13.720;2023-12-20T05:38:34;1.70;;;0.65;;
34982;SDS011;21187;50.976;13.720;2023-12-20T05:43:36;0.30;;;0.30;;
34982;SDS011;21187;50.976;13.720;2023-12-20T05:48:38;0.40;;;0.40;;
34982;SDS011;21187;50.976;13.720;2023-12-20T05:53:40;0.45;;;0.45;;
34982;SDS011;21187;50.976;13.720;2023-12-20T05:58:41;0.30;;;0.30;;
34982;SDS011;21187;50.976;13.720;2023-12-20T06:03:43;0.43;;;0.40;;
34982;SDS011;21187;50.976;13.720;2023-12-20T06:08:45;0.60;;;0.50;;
34982;SDS011;21187;50.976;13.720;2023-12-20T06:13:47;1.95;;;0.40;;
34982;SDS011;21187;50.976;13.720;2023-12-20T06:18:50;0.50;;;0.50;;
34982;SDS011;21187;50.976;13.720;2023-12-20T06:23:52;0.60;;;0.55;;
34982;SDS011;21187;50.976;13.720;2023-12-20T06:28:54;1.02;;;0.93;;
34982;SDS011;21187;50.976;13.720;2023-12-20T06:33:56;0.80;;;0.60;;
34982;SDS011;21187;50.976;13.720;2023-12-20T06:39:02;1.92;;;0.50;;
34982;SDS011;21187;50.976;13.720;2023-12-20T06:44:06;1.20;;;0.70;;
34982;SDS011;21187;50.976;13.720;2023-12-20T06:49:08;0.73;;;0.65;;
34982;SDS011;21187;50.976;13.720;2023-12-20T06:54:10;1.60;;;1.35;;
34982;SDS011;21187;50.976;13.720;2023-12-20T06:59:12;1.17;;;0.90;;
34982;SDS011;21187;50.976;13.720;2023-12-20T07:04:14;1.60;;;1.20;;
34982;SDS011;21187;50.976;13.720;2023-12-20T07:09:17;1.70;;;1.00;;
34982;SDS011;21187;50.976;13.720;2023-12-20T07:14:19;2.75;;;1.15;;
34982;SDS011;21187;50.976;13.720;2023-12-20T07:19:20;1.55;;;0.93;;
34982;SDS011;21187;50.976;13.720;2023-12-20T07:24:22;1.80;;;1.30;;
34982;SDS011;21187;50.976;13.720;2023-12-20T07:29:24;2.58;;;1.38;;
34982;SDS011;21187;50.976;13.720;2023-12-20T07:34:26;3.20;;;1.70;;
34982;SDS011;21187;50.976;13.720;2023-12-20T07:39:28;1.88;;;1.50;;
34982;SDS011;21187;50.976;13.720;2023-12-20T07:44:30;2.30;;;1.80;;
34982;SDS011;21187;50.976;13.720;2023-12-20T07:49:32;4.03;;;1.80;;
34982;SDS011;21187;50.976;13.720;2023-12-20T07:54:34;2.63;;;1.95;;
34982;SDS011;21187;50.976;13.720;2023-12-20T07:59:36;3.08;;;1.60;;
34982;SDS011;21187;50.976;13.720;2023-12-20T08:04:38;7.43;;;2.00;;
34982;SDS011;21187;50.976;13.720;2023-12-20T08:09:40;3.97;;;2.00;;
34982;SDS011;21187;50.976;13.720;2023-12-20T08:14:42;4.05;;;1.60;;
34982;SDS011;21187;50.976;13.720;2023-12-20T08:19:44;3.00;;;1.40;;
34982;SDS011;21187;50.976;13.720;2023-12-20T08:24:46;3.33;;;1.85;;
34982;SDS011;21187;50.976;13.720;2023-12-20T08:29:48;4.93;;;1.55;;
34982;SDS011;21187;50.976;13.720;2023-12-20T08:34:51;1.30;;;1.20;;
34982;SDS011;21187;50.976;13.720;2023-12-20T08:39:53;3.00;;;1.27;;
34982;SDS011;21187;50.976;13.720;2023-12-20T08:44:55;4.95;;;1.17;;
34982;SDS011;21187;50.976;13.720;2023-12-20T08:49:57;10.30;;;1.50;;
34982;SDS011;21187;50.976;13.720;2023-12-20T08:55:01;2.05;;;0.90;;
34982;SDS011;21187;50.976;13.720;2023-12-20T09:00:04;8.68;;;1.00;;
34982;SDS011;21187;50.976;13.720;2023-12-20T09:05:09;5.10;;;1.25;;
34982;SDS011;21187;50.976;13.720;2023-12-20T09:10:11;4.38;;;1.35;;
34982;SDS011;21187;50.976;13.720;2023-12-20T09:15:13;3.83;;;0.98;;
34982;SDS011;21187;50.976;13.720;2023-12-20T09:20:15;2.42;;;1.25;;
34982;SDS011;21187;50.976;13.720;2023-12-20T09:25:17;2.60;;;1.30;;
34982;SDS011;21187;50.976;13.720;2023-12-20T09:30:19;3.35;;;1.17;;
34982;SDS011;21187;50.976;13.720;2023-12-20T09:35:28;2.28;;;1.25;;
34982;SDS011;21187;50.976;13.720;2023-12-20T09:40:30;2.97;;;1.13;;
34982;SDS011;21187;50.976;13.720;2023-12-20T09:45:34;2.28;;;1.42;;
34982;SDS011;21187;50.976;13.720;2023-12-20T09:50:36;3.63;;;1.40;;
34982;SDS011;21187;50.976;13.720;2023-12-20T09:55:38;4.80;;;1.20;;
34982;SDS011;21187;50.976;13.720;2023-12-20T10:00:42;2.63;;;1.02;;
34982;SDS011;21187;50.976;13.720;2023-12-20T10:05:44;7.88;;;1.35;;
34982;SDS011;21187;50.976;13.720;2023-12-20T10:10:46;6.70;;;1.15;;
34982;SDS011;21187;50.976;13.720;2023-12-20T10:15:49;5.15;;;1.25;;
34982;SDS011;21187;50.976;13.720;2023-12-20T10:20:51;4.35;;;1.38;;
34982;SDS011;21187;50.976;13.720;2023-12-20T10:25:57;4.10;;;1.42;;
34982;SDS011;21187;50.976;13.720;2023-12-20T10:31:00;6.93;;;1.50;;
34982;SDS011;21187;50.976;13.720;2023-12-20T10:36:02;6.22;;;1.20;;
34982;SDS011;21187;50.976;13.720;2023-12-20T10:41:05;4.60;;;1.30;;
34982;SDS011;21187;50.976;13.720;2023-12-20T10:46:07;3.58;;;1.80;;
34982;SDS011;21187;50.976;13.720;2023-12-20T10:51:10;2.17;;;1.10;;
34982;SDS011;21187;50.976;13.720;2023-12-20T10:56:14;7.43;;;1.60;;
34982;SDS011;21187;50.976;13.720;2023-12-20T11:01:19;4.28;;;1.30;;
34982;SDS011;21187;50.976;13.720;2023-12-20T11:17:11;4.55;;;1.10;;
34982;SDS011;21187;50.976;13.720;2023-12-20T11:22:21;4.63;;;1.42;;
34982;SDS011;21187;50.976;13.720;2023-12-20T11:27:23;4.40;;;1.30;;
34982;SDS011;21187;50.976;13.720;2023-12-20T11:37:35;8.48;;;1.50;;
34982;SDS011;21187;50.976;13.720;2023-12-20T11:42:38;4.05;;;1.40;;
34982;SDS011;21187;50.976;13.720;2023-12-20T11:47:46;5.30;;;1.42;;
34982;SDS011;21187;50.976;13.720;2023-12-20T11:52:49;6.68;;;1.95;;
34982;SDS011;21187;50.976;13.720;2023-12-20T11:57:53;8.05;;;1.70;;
34982;SDS011;21187;50.976;13.720;2023-12-20T12:02:56;9.10;;;2.17;;
34982;SDS011;21187;50.976;13.720;2023-12-20T12:07:59;12.07;;;1.45;;
34982;SDS011;21187;50.976;13.720;2023-12-20T12:13:01;5.47;;;1.27;;
34982;SDS011;21187;50.976;13.720;2023-12-20T12:18:03;5.10;;;1.10;;
34982;SDS011;21187;50.976;13.720;2023-12-20T12:23:06;7.57;;;1.45;;
34982;SDS011;21187;50.976;13.720;2023-12-20T12:28:08;6.40;;;1.33;;
34982;SDS011;21187;50.976;13.720;2023-12-20T12:33:10;5.22;;;1.40;;
34982;SDS011;21187;50.976;13.720;2023-12-20T12:38:13;5.03;;;1.40;;
34982;SDS011;21187;50.976;13.720;2023-12-20T12:43:17;4.70;;;1.17;;
34982;SDS011;21187;50.976;13.720;2023-12-20T12:48:19;10.48;;;1.52;;
34982;SDS011;21187;50.976;13.720;2023-12-20T12:53:21;5.65;;;1.48;;
34982;SDS011;21187;50.976;13.720;2023-12-20T12:58:23;2.50;;;0.95;;
34982;SDS011;21187;50.976;13.720;2023-12-20T13:03:27;5.68;;;1.23;;
34982;SDS011;21187;50.976;13.720;2023-12-20T13:08:28;4.45;;;1.17;;
34982;SDS011;21187;50.976;13.720;2023-12-20T13:13:31;3.33;;;1.00;;
34982;SDS011;21187;50.976;13.720;2023-12-20T13:18:34;2.13;;;0.95;;
34982;SDS011;21187;50.976;13.720;2023-12-20T13:23:36;7.47;;;1.20;;
34982;SDS011;21187;50.976;13.720;2023-12-20T13:28:41;6.22;;;1.10;;
34982;SDS011;21187;50.976;13.720;2023-12-20T13:33:43;8.02;;;1.50;;
34982;SDS011;21187;50.976;13.720;2023-12-20T13:38:45;4.07;;;1.58;;
34982;SDS011;21187;50.976;13.720;2023-12-20T13:43:47;5.00;;;1.90;;
34982;SDS011;21187;50.976;13.720;2023-12-20T13:48:49;9.38;;;1.58;;
34982;SDS011;21187;50.976;13.720;2023-12-20T13:53:51;4.00;;;1.40;;
34982;SDS011;21187;50.976;13.720;2023-12-20T13:58:53;2.25;;;1.20;;
34982;SDS011;21187;50.976;13.720;2023-12-20T14:03:55;5.00;;;1.75;;
34982;SDS011;21187;50.976;13.720;2023-12-20T14:08:57;5.95;;;1.40;;
34982;SDS011;21187;50.976;13.720;2023-12-20T14:14:01;3.00;;;1.25;;
34982;SDS011;21187;50.976;13.720;2023-12-20T14:19:03;4.85;;;1.60;;
34982;SDS011;21187;50.976;13.720;2023-12-20T14:24:09;3.55;;;1.10;;
34982;SDS011;21187;50.976;13.720;2023-12-20T14:29:11;4.53;;;1.33;;
34982;SDS011;21187;50.976;13.720;2023-12-20T14:34:12;5.75;;;1.20;;
34982;SDS011;21187;50.976;13.720;2023-12-20T14:39:15;4.82;;;1.30;;
34982;SDS011;21187;50.976;13.720;2023-12-20T14:44:17;3.65;;;1.05;;
34982;SDS011;21187;50.976;13.720;2023-12-20T14:49:19;3.47;;;1.77;;
34982;SDS011;21187;50.976;13.720;2023-12-20T14:54:21;3.22;;;1.10;;
34982;SDS011;21187;50.976;13.720;2023-12-20T14:59:23;2.47;;;0.95;;
34982;SDS011;21187;50.976;13.720;2023-12-20T15:04:24;6.80;;;1.45;;
34982;SDS011;21187;50.976;13.720;2023-12-20T15:09:30;3.90;;;1.27;;
34982;SDS011;21187;50.976;13.720;2023-12-20T15:14:32;3.50;;;0.90;;
34982;SDS011;21187;50.976;13.720;2023-12-20T15:19:34;3.80;;;1.50;;
34982;SDS011;21187;50.976;13.720;2023-12-20T15:24:36;3.65;;;1.25;;
34982;SDS011;21187;50.976;13.720;2023-12-20T15:29:40;6.43;;;1.35;;
34982;SDS011;21187;50.976;13.720;2023-12-20T15:34:42;3.72;;;1.40;;
34982;SDS011;21187;50.976;13.720;2023-12-20T15:39:44;2.70;;;1.60;;
34982;SDS011;21187;50.976;13.720;2023-12-20T15:44:46;4.78;;;1.33;;
34982;SDS011;21187;50.976;13.720;2023-12-20T15:49:47;8.68;;;1.85;;
34982;SDS011;21187;50.976;13.720;2023-12-20T15:54:51;7.20;;;3.75;;
34982;SDS011;21187;50.976;13.720;2023-12-20T15:59:53;14.75;;;2.88;;
34982;SDS011;21187;50.976;13.720;2023-12-20T16:04:55;2.20;;;1.40;;
34982;SDS011;21187;50.976;13.720;2023-12-20T16:09:58;3.15;;;1.15;;
34982;SDS011;21187;50.976;13.720;2023-12-20T16:15:02;5.30;;;1.40;;
34982;SDS011;21187;50.976;13.720;2023-12-20T16:20:05;4.53;;;1.55;;
34982;SDS011;21187;50.976;13.720;2023-12-20T16:25:08;4.30;;;1.77;;
34982;SDS011;21187;50.976;13.720;2023-12-20T16:30:13;3.65;;;1.35;;
34982;SDS011;21187;50.976;13.720;2023-12-20T16:35:16;6.05;;;1.73;;
34982;SDS011;21187;50.976;13.720;2023-12-20T16:40:19;6.60;;;2.15;;
34982;SDS011;21187;50.976;13.720;2023-12-20T16:45:27;8.20;;;1.80;;
34982;SDS011;21187;50.976;13.720;2023-12-20T16:50:29;3.65;;;1.30;;
34982;SDS011;21187;50.976;13.720;2023-12-20T16:55:32;4.07;;;1.33;;
34982;SDS011;21187;50.976;13.720;2023-12-20T17:00:35;4.30;;;1.40;;
34982;SDS011;21187;50.976;13.720;2023-12-20T17:05:37;4.25;;;1.65;;
34982;SDS011;21187;50.976;13.720;2023-12-20T17:10:39;4.78;;;1.33;;
34982;SDS011;21187;50.976;13.720;2023-12-20T17:15:41;3.40;;;1.55;;
34982;SDS011;21187;50.976;13.720;2023-12-20T17:20:43;3.80;;;1.33;;
34982;SDS011;21187;50.976;13.720;2023-12-20T17:25:45;3.50;;;1.48;;
34982;SDS011;21187;50.976;13.720;2023-12-20T17:30:47;7.50;;;1.58;;
34982;SDS011;21187;50.976;13.720;2023-12-20T17:35:49;6.32;;;2.85;;
34982;SDS011;21187;50.976;13.720;2023-12-20T17:40:55;3.63;;;1.85;;
34982;SDS011;21187;50.976;13.720;2023-12-20T17:45:57;1.92;;;1.30;;
34982;SDS011;21187;50.976;13.720;2023-12-20T17:51:02;6.47;;;1.40;;
34982;SDS011;21187;50.976;13.720;2023-12-20T17:56:05;8.82;;;1.38;;
34982;SDS011;21187;50.976;13.720;2023-12-20T18:01:07;3.53;;;1.30;;
34982;SDS011;21187;50.976;13.720;2023-12-20T18:06:10;5.28;;;2.10;;
34982;SDS011;21187;50.976;13.720;2023-12-20T18:11:12;7.53;;;1.48;;
34982;SDS011;21187;50.976;13.720;2023-12-20T18:16:14;5.25;;;1.70;;
34982;SDS011;21187;50.976;13.720;2023-12-20T18:21:17;4.95;;;1.58;;
34982;SDS011;21187;50.976;13.720;2023-12-20T18:26:19;6.00;;;1.90;;
34982;SDS011;21187;50.976;13.720;2023-12-20T18:31:21;6.82;;;4.20;;
34982;SDS011;21187;50.976;13.720;2023-12-20T18:36:24;3.10;;;2.00;;
34982;SDS011;21187;50.976;13.720;2023-12-20T18:41:26;7.00;;;2.03;;
34982;SDS011;21187;50.976;13.720;2023-12-20T18:46:29;5.38;;;2.30;;
34982;SDS011;21187;50.976;13.720;2023-12-20T18:51:32;6.75;;;2.08;;
34982;SDS011;21187;50.976;13.720;2023-12-20T18:56:34;9.35;;;2.13;;
34982;SDS011;21187;50.976;13.720;2023-12-20T19:01:39;7.32;;;1.90;;
34982;SDS011;21187;50.976;13.720;2023-12-20T19:06:42;4.35;;;2.00;;
34982;SDS011;21187;50.976;13.720;2023-12-20T19:11:44;3.97;;;2.15;;
34982;SDS011;21187;50.976;13.720;2023-12-20T19:16:46;8.60;;;1.75;;
34982;SDS011;21187;50.976;13.720;2023-12-20T19:21:50;2.67;;;1.73;;
34982;SDS011;21187;50.976;13.720;2023-12-20T19:26:52;5.43;;;1.83;;
34982;SDS011;21187;50.976;13.720;2023-12-20T19:31:55;3.60;;;1.30;;
34982;SDS011;21187;50.976;13.720;2023-12-20T19:36:57;6.93;;;1.90;;
34982;SDS011;21187;50.976;13.720;2023-12-20T19:41:59;4.25;;;1.60;;
34982;SDS011;21187;50.976;13.720;2023-12-20T19:47:02;7.68;;;2.20;;
34982;SDS011;21187;50.976;13.720;2023-12-20T19:52:05;8.18;;;2.47;;
34982;SDS011;21187;50.976;13.720;2023-12-20T19:57:08;2.95;;;1.73;;
34982;SDS011;21187;50.976;13.720;2023-12-20T20:02:13;5.28;;;1.60;;
34982;SDS011;21187;50.976;13.720;2023-12-20T20:07:16;3.60;;;1.35;;
34982;SDS011;21187;50.976;13.720;2023-12-20T20:12:21;3.45;;;1.40;;
34982;SDS011;21187;50.976;13.720;2023-12-20T20:17:24;2.03;;;1.17;;
34982;SDS011;21187;50.976;13.720;2023-12-20T20:22:27;2.85;;;1.50;;
34982;SDS011;21187;50.976;13.720;2023-12-20T20:27:29;2.65;;;1.23;;
34982;SDS011;21187;50.976;13.720;2023-12-20T20:32:31;2.35;;;1.02;;
34982;SDS011;21187;50.976;13.720;2023-12-20T20:37:33;2.60;;;1.17;;
34982;SDS011;21187;50.976;13.720;2023-12-20T20:42:35;1.85;;;1.10;;
34982;SDS011;21187;50.976;13.720;2023-12-20T20:47:40;1.02;;;0.88;;
34982;SDS011;21187;50.976;13.720;2023-12-20T20:52:45;0.77;;;0.77;;
34982;SDS011;21187;50.976;13.720;2023-12-20T20:57:48;1.38;;;0.85;;
34982;SDS011;21187;50.976;13.720;2023-12-20T21:02:52;1.48;;;0.90;;
34982;SDS011;21187;50.976;13.720;2023-12-20T21:07:54;1.13;;;0.70;;
34982;SDS011;21187;50.976;13.720;2023-12-20T21:12:56;3.42;;;0.90;;
34982;SDS011;21187;50.976;13.720;2023-12-20T21:17:58;1.40;;;1.00;;
34982;SDS011;21187;50.976;13.720;2023-12-20T21:23:00;2.05;;;0.65;;
34982;SDS011;21187;50.976;13.720;2023-12-20T21:28:05;1.02;;;0.90;;
34982;SDS011;21187;50.976;13.720;2023-12-20T21:33:08;7.45;;;0.95;;
34982;SDS011;21187;50.976;13.720;2023-12-20T21:38:09;1.13;;;0.90;;
34982;SDS011;21187;50.976;13.720;2023-12-20T21:43:12;3.15;;;0.90;;
34982;SDS011;21187;50.976;13.720;2023-12-20T21:48:14;2.28;;;1.00;;
34982;SDS011;21187;50.976;13.720;2023-12-20T21:53:16;1.20;;;1.10;;
34982;SDS011;21187;50.976;13.720;2023-12-20T21:58:18;3.35;;;0.77;;
34982;SDS011;21187;50.976;13.720;2023-12-20T22:03:20;1.60;;;0.80;;
34982;SDS011;21187;50.976;13.720;2023-12-20T22:08:22;2.22;;;0.70;;
34982;SDS011;21187;50.976;13.720;2023-12-20T22:13:24;1.50;;;0.90;;
34982;SDS011;21187;50.976;13.720;2023-12-20T22:18:27;0.60;;;0.60;;
34982;SDS011;21187;50.976;13.720;2023-12-20T22:23:29;1.00;;;0.55;;
34982;SDS011;21187;50.976;13.720;2023-12-20T22:28:32;0.50;;;0.50;;
34982;SDS011;21187;50.976;13.720;2023-12-20T22:33:34;1.10;;;0.70;;
34982;SDS011;21187;50.976;13.720;2023-12-20T22:38:37;3.90;;;0.90;;
34982;SDS011;21187;50.976;13.720;2023-12-20T22:43:40;0.93;;;0.70;;
34982;SDS011;21187;50.976;13.720;2023-12-20T22:48:43;0.80;;;0.60;;
34982;SDS011;21187;50.976;13.720;2023-12-20T22:53:45;2.47;;;0.80;;
34982;SDS011;21187;50.976;13.720;2023-12-20T22:58:46;2.60;;;0.93;;
34982;SDS011;21187;50.976;13.720;2023-12-20T23:03:48;3.53;;;0.80;;
34982;SDS011;21187;50.976;13.720;2023-12-20T23:15:07;1.23;;;0.60;;
34982;SDS011;21187;50.976;13.720;2023-12-20T23:20:09;1.52;;;0.90;;
34982;SDS011;21187;50.976;13.720;2023-12-20T23:25:11;1.20;;;0.80;;
34982;SDS011;21187;50.976;13.720;2023-12-20T23:30:13;2.08;;;1.00;;
34982;SDS011;21187;50.976;13.720;2023-12-20T23:35:16;2.72;;;0.70;;
34982;SDS011;21187;50.976;13.720;2023-12-20T23:40:18;2.15;;;0.70;;
34982;SDS011;21187;50.976;13.720;2023-12-20T23:45:20;1.10;;;0.68;;
34982;SDS011;21187;50.976;13.720;2023-12-20T23:50:21;2.25;;;0.70;;
34982;SDS011;21187;50.976;13.720;2023-12-20T23:55:23;2.88;;;1.10;;
